.
WxDataArchive / Data Records for 2008-06-15
2008-06-14 June 2008 2008-06-16

Data Records for Sunday, 15 June 2008

Time	Temp	Chill	HIndex	Humid	Dewpt	 Wind 	HiWind	WindDir	Rain 	Barom 
-----	----	-----	------	-----	-----	------	------	-------	-----	----- 
00:00	66.4	66.4	66.4	63	53.4	0	1	225	0.00	29.898 
00:05	66.8	66.8	66.8	63	53.8	0	1	225	0.00	29.898 
00:10	66.9	66.9	66.9	62	53.4	0	1	225	0.00	29.895 
00:15	67.1	67.1	67.1	62	53.6	0	1	225	0.00	29.891 
00:20	67.1	67.1	67.1	62	53.6	0	1	225	0.00	29.891 
00:25	66.9	66.9	66.9	62	53.4	0	1	225	0.00	29.889 
00:30	66.9	66.9	66.9	62	53.4	0	0	---	0.00	29.887 
00:35	66.8	66.8	66.8	62	53.4	0	1	225	0.00	29.887 
00:40	66.8	66.8	66.8	62	53.4	0	1	225	0.00	29.889 
00:45	66.8	66.8	66.8	62	53.4	0	1	225	0.00	29.889 
00:50	66.8	66.8	66.8	62	53.4	0	1	225	0.00	29.887 
00:55	66.8	66.8	66.8	61	52.9	0	0	---	0.00	29.887 
01:00	66.9	66.9	66.9	61	53.0	0	1	225	0.00	29.887 
01:05	67.1	67.1	67.1	61	53.2	0	1	225	0.00	29.886 
01:10	67.3	67.3	67.3	60	52.9	0	0	---	0.00	29.885 
01:15	67.3	67.3	67.3	60	52.9	0	1	225	0.00	29.884 
01:20	67.1	67.1	67.1	60	52.7	0	1	225	0.00	29.883 
01:25	67.1	67.1	67.1	59	52.3	0	1	225	0.00	29.883 
01:30	67.1	67.1	67.1	60	52.7	0	1	225	0.00	29.882 
01:35	66.9	66.9	66.9	60	52.6	0	0	---	0.00	29.881 
01:40	66.6	66.6	66.6	61	52.7	0	0	---	0.00	29.879 
01:45	66.3	66.3	66.3	62	52.9	0	1	225	0.00	29.877 
01:50	66.0	66.0	66.0	62	52.6	0	0	---	0.00	29.876 
01:55	65.8	65.8	65.8	62	52.4	0	0	---	0.00	29.873 
02:00	65.6	65.6	65.6	64	53.1	0	0	---	0.00	29.871 
02:05	65.5	65.5	65.5	63	52.6	0	0	---	0.00	29.874 
02:10	65.3	65.3	65.3	63	52.4	0	1	225	0.00	29.875 
02:15	65.5	65.5	65.5	63	52.6	0	1	225	0.00	29.875 
02:20	65.5	65.5	65.5	63	52.6	0	1	225	0.00	29.872 
02:25	65.6	65.6	65.6	62	52.2	0	2	225	0.00	29.871 
02:30	65.8	65.8	65.8	62	52.4	0	1	225	0.00	29.869 
02:35	65.8	65.8	65.8	62	52.4	0	1	225	0.00	29.869 
02:40	65.8	65.8	65.8	62	52.4	0	0	---	0.00	29.868 
02:45	65.8	65.8	65.8	62	52.4	0	1	225	0.00	29.868 
02:50	65.6	65.6	65.6	63	52.7	0	0	---	0.00	29.868 
02:55	65.3	65.3	65.3	64	52.8	0	0	---	0.00	29.868 
03:00	65.2	65.2	65.2	64	52.7	0	0	---	0.00	29.869 
03:05	64.8	64.8	64.8	65	52.8	0	0	---	0.00	29.868 
03:10	64.5	64.5	64.5	65	52.5	0	0	---	0.00	29.868 
03:15	64.2	64.2	64.2	67	53.0	0	0	---	0.00	29.868 
03:20	64.0	64.0	64.0	67	52.8	0	0	---	0.00	29.868 
03:25	63.7	63.7	63.7	68	52.9	0	0	---	0.00	29.867 
03:30	63.4	63.4	63.4	69	53.0	0	0	---	0.00	29.867 
03:35	63.2	63.2	63.2	69	52.9	0	0	---	0.00	29.869 
03:40	62.9	62.9	62.9	69	52.6	0	0	---	0.00	29.869 
03:45	62.7	62.7	62.7	70	52.8	0	0	---	0.00	29.868 
03:50	62.7	62.7	62.7	71	53.2	0	0	---	0.00	29.868 
03:55	62.6	62.6	62.6	71	53.1	0	0	---	0.00	29.866 
04:00	62.6	62.6	62.6	70	52.7	0	0	---	0.00	29.865 
04:05	62.7	62.7	62.7	70	52.8	0	0	---	0.00	29.865 
04:10	62.9	62.9	62.9	69	52.6	0	0	---	0.00	29.862 
04:15	63.1	63.1	63.1	69	52.8	0	1	225	0.00	29.861 
04:20	63.1	63.1	63.1	69	52.8	0	0	---	0.00	29.860 
04:25	63.1	63.1	63.1	69	52.8	0	0	---	0.00	29.861 
04:30	63.2	63.2	63.2	69	52.9	0	1	225	0.00	29.860 
04:35	63.4	63.4	63.4	68	52.6	0	1	225	0.00	29.861 
04:40	63.7	63.7	63.7	68	52.9	0	0	---	0.00	29.857 
04:45	63.7	63.7	63.7	69	53.3	0	0	---	0.00	29.855 
04:50	63.9	63.9	63.9	68	53.1	0	1	225	0.00	29.853 
04:55	64.2	64.2	64.2	68	53.4	0	0	---	0.00	29.851 
05:00	64.2	64.2	64.2	67	53.0	0	0	---	0.00	29.849 
05:05	64.3	64.3	64.3	67	53.1	0	0	---	0.00	29.850 
05:10	64.3	64.3	64.3	67	53.1	0	1	225	0.00	29.850 
05:15	64.5	64.5	64.5	67	53.3	0	1	225	0.00	29.851 
05:20	64.5	64.5	64.5	67	53.3	0	1	225	0.00	29.853 
05:25	64.7	64.7	64.7	67	53.5	0	0	---	0.00	29.856 
05:30	64.5	64.5	64.5	68	53.7	0	0	---	0.00	29.858 
05:35	64.3	64.3	64.3	67	53.1	0	0	---	0.00	29.860 
05:40	64.3	64.3	64.3	68	53.5	0	0	---	0.00	29.860 
05:45	64.2	64.2	64.2	69	53.8	0	0	---	0.00	29.865 
05:50	64.2	64.2	64.2	69	53.8	0	0	---	0.00	29.864 
05:55	64.2	64.2	64.2	70	54.2	0	0	---	0.00	29.865 
06:00	64.3	64.3	64.3	71	54.7	0	0	---	0.00	29.868 
06:05	64.3	64.3	64.3	71	54.7	0	0	---	0.00	29.872 
06:10	64.7	64.7	64.7	71	55.1	0	0	---	0.00	29.869 
06:15	65.0	65.0	65.0	71	55.4	0	1	225	0.00	29.867 
06:20	65.5	65.5	65.5	71	55.8	0	1	225	0.00	29.866 
06:25	66.1	66.1	66.1	69	55.6	0	2	225	0.00	29.869 
06:30	67.1	67.1	67.1	66	55.4	0	2	225	0.00	29.871 
06:35	67.9	67.9	67.9	64	55.3	1	2	225	0.00	29.870 
06:40	68.6	68.6	68.6	64	55.9	0	1	248	0.00	29.870 
06:45	69.1	69.1	69.1	62	55.5	1	2	248	0.00	29.870 
06:50	69.6	69.6	69.6	62	56.0	1	2	248	0.00	29.871 
06:55	69.9	69.9	69.9	61	55.8	1	4	248	0.00	29.870 
07:00	70.3	70.3	70.3	60	55.7	1	2	248	0.00	29.870 
07:05	70.6	70.6	70.6	59	55.6	1	2	248	0.00	29.874 
07:10	70.8	70.8	70.8	60	56.2	1	2	248	0.00	29.874 
07:15	71.1	71.1	71.1	60	56.5	1	3	248	0.00	29.877 
07:20	71.6	71.6	71.6	59	56.5	1	3	292	0.00	29.875 
07:25	72.0	72.0	72.0	59	56.9	1	3	270	0.00	29.876 
07:30	72.3	72.3	72.3	57	56.2	1	3	248	0.00	29.874 
07:35	72.7	72.7	72.7	58	57.1	1	3	248	0.00	29.874 
07:40	73.0	73.0	73.0	57	56.9	1	3	270	0.00	29.874 
07:45	73.5	73.5	73.5	56	56.8	0	2	248	0.00	29.876 
07:50	73.9	73.9	73.9	55	56.7	1	3	248	0.00	29.880 
07:55	74.2	74.2	74.2	55	57.0	1	2	248	0.00	29.880 
08:00	74.6	74.6	74.6	54	56.8	1	3	248	0.00	29.880 
08:05	74.9	74.9	74.9	53	56.6	2	4	248	0.00	29.885 
08:10	75.3	75.3	77.7	53	57.0	1	3	248	0.00	29.886 
08:15	75.4	75.4	77.8	52	56.5	1	3	248	0.00	29.888 
08:20	75.6	75.6	77.9	52	56.7	1	3	292	0.00	29.885 
08:25	75.6	75.6	77.9	52	56.7	2	4	292	0.00	29.885 
08:30	76.0	76.0	78.1	53	57.6	1	3	248	0.00	29.885 
08:35	76.3	76.3	78.2	52	57.4	1	3	248	0.00	29.883 
08:40	76.7	76.7	78.4	50	56.6	2	3	248	0.00	29.883 
08:45	76.8	76.8	78.5	51	57.3	1	3	248	0.00	29.879 
08:50	77.2	77.2	78.7	50	57.1	2	4	248	0.00	29.880 
08:55	77.6	77.6	79.0	51	58.0	1	5	248	0.00	29.879 
09:00	77.7	77.7	79.2	53	59.2	2	6	270	0.00	29.879 
09:05	77.7	77.7	79.0	50	57.6	2	5	270	0.00	29.880 
09:10	77.6	77.6	79.0	52	58.6	3	5	270	0.00	29.876 
09:15	77.7	77.7	79.0	50	57.6	2	4	270	0.00	29.874 
09:20	78.1	78.1	79.4	51	58.5	2	5	248	0.00	29.873 
09:25	78.1	78.1	79.4	52	59.0	2	4	270	0.00	29.871 
09:30	78.5	78.5	79.5	49	57.7	2	4	270	0.00	29.872 
09:35	78.8	78.8	79.7	48	57.4	2	4	270	0.00	29.872 
09:40	78.8	78.8	79.6	46	56.2	3	5	270	0.00	29.872 
09:45	79.4	79.4	80.3	50	59.1	2	4	270	0.00	29.871 
09:50	79.8	79.8	80.5	48	58.3	1	3	270	0.00	29.870 
09:55	79.9	79.9	80.4	46	57.2	2	6	248	0.00	29.870 
10:00	80.1	80.1	80.5	46	57.4	2	5	248	0.00	29.871 
10:05	79.8	79.8	80.5	48	58.3	2	6	270	0.00	29.875 
10:10	80.1	80.1	80.5	46	57.4	3	7	270	0.00	29.876 
10:15	79.8	79.8	80.4	47	57.8	3	6	270	0.00	29.878 
10:20	79.8	79.8	80.5	49	58.9	3	9	270	0.00	29.880 
10:25	80.1	80.1	80.7	48	58.6	3	5	248	0.00	29.877 
10:30	79.6	79.6	80.3	48	58.2	3	6	270	0.00	29.879 
10:35	79.2	79.2	80.1	50	58.9	2	7	292	0.00	29.884 
10:40	79.2	79.2	80.1	50	58.9	3	5	270	0.00	29.887 
10:45	79.8	79.8	80.5	49	58.9	4	7	270	0.00	29.887 
10:50	79.0	79.0	80.0	51	59.3	4	10	270	0.00	29.890 
10:55	76.5	76.5	78.4	55	59.1	5	10	270	0.00	29.898 
11:00	74.9	74.9	74.9	58	59.1	4	10	270	0.00	29.905 
11:05	74.4	74.4	74.4	55	57.2	4	10	315	0.00	29.902 
11:10	74.2	74.2	74.2	54	56.5	3	6	292	0.00	29.900 
11:15	74.4	74.4	74.4	54	56.7	2	5	248	0.00	29.892 
11:20	74.6	74.6	74.6	55	57.3	2	4	248	0.00	29.892 
11:25	74.4	74.4	74.4	52	55.6	2	10	270	0.00	29.888 
11:30	74.6	74.6	74.6	54	56.8	1	3	315	0.00	29.881 
11:35	74.4	74.4	74.4	53	56.1	1	3	292	0.00	29.883 
11:40	74.4	74.4	74.4	54	56.7	1	2	292	0.00	29.879 
11:45	74.0	74.0	74.0	53	55.8	1	2	315	0.00	29.876 
11:50	74.0	74.0	74.0	55	56.8	0	2	315	0.00	29.875 
11:55	74.0	74.0	74.0	54	56.3	0	1	315	0.00	29.867 
12:00	74.0	74.0	74.0	53	55.8	1	3	315	0.00	29.866 
12:05	74.0	74.0	74.0	52	55.2	1	3	270	0.00	29.859 
12:10	74.2	74.2	74.2	54	56.5	0	2	270	0.00	29.851 
12:15	74.6	74.6	74.6	53	56.3	0	2	270	0.00	29.841 
12:20	74.9	74.9	74.9	52	56.1	0	1	270	0.00	29.844 
12:25	75.4	75.4	77.8	53	57.1	0	1	270	0.00	29.835 
12:30	75.8	75.8	78.0	53	57.4	0	2	270	0.00	29.825 
12:35	75.8	75.8	78.0	51	56.4	1	3	270	0.00	29.825 
12:40	75.8	75.8	78.0	50	55.8	0	2	248	0.00	29.817 
12:45	76.0	76.0	78.1	52	57.1	0	2	248	0.00	29.816 
12:50	76.1	76.1	78.1	50	56.1	1	3	248	0.00	29.818 
12:55	76.7	76.7	78.5	52	57.7	1	3	248	0.00	29.817 
13:00	77.4	77.4	78.9	53	58.9	1	3	270	0.00	29.814 
13:05	77.9	77.9	79.1	48	56.6	2	3	270	0.00	29.815 
13:10	77.9	77.9	79.2	50	57.7	1	4	270	0.00	29.817 
13:15	78.1	78.1	79.2	47	56.2	2	4	270	0.00	29.813 
13:20	78.5	78.5	79.5	48	57.2	2	7	270	0.00	29.814 
13:25	78.6	78.6	79.7	51	58.9	1	6	270	0.00	29.815 
13:30	79.2	79.2	79.9	47	57.2	2	5	248	0.00	29.818 
13:35	79.0	79.0	79.8	47	57.0	2	4	270	0.00	29.825 
13:40	79.4	79.4	79.8	44	55.6	2	4	248	0.00	29.830 
13:45	79.0	79.0	79.7	46	56.4	2	4	248	0.00	29.827 
13:50	79.0	79.0	79.7	46	56.4	2	4	270	0.00	29.825 
13:55	79.6	79.6	80.1	46	57.0	2	7	270	0.00	29.824 
14:00	80.1	80.1	80.3	43	55.6	2	4	248	0.00	29.819 
14:05	80.5	80.5	80.7	45	57.2	2	4	270	0.00	29.815 
14:10	80.9	80.9	80.5	39	53.6	2	5	270	0.00	29.809 
14:15	81.1	81.1	80.8	41	55.1	2	4	248	0.00	29.807 
14:20	81.6	81.6	80.9	38	53.5	1	4	270	0.00	29.800 
14:25	82.2	82.2	81.2	36	52.6	2	4	270	0.00	29.795 
14:30	82.2	82.2	81.4	38	54.0	2	4	270	0.00	29.793 
14:35	82.6	82.6	81.6	37	53.7	1	5	248	0.00	29.786 
14:40	83.0	83.0	81.6	34	51.7	1	3	248	0.00	29.783 
14:45	83.2	83.2	81.9	35	52.7	1	3	292	0.00	29.778 
14:50	83.6	83.6	82.2	35	53.0	1	3	270	0.00	29.777 
14:55	84.1	84.1	82.5	34	52.7	2	3	248	0.00	29.779 
15:00	84.3	84.3	82.9	35	53.6	2	5	270	0.00	29.778 
15:05	84.7	84.7	83.4	36	54.8	1	5	248	0.00	29.778 
15:10	84.7	84.7	83.2	35	54.0	2	5	270	0.00	29.779 
15:15	84.7	84.7	83.2	35	54.0	1	3	248	0.00	29.776 
15:20	84.5	84.5	83.0	35	53.8	2	5	292	0.00	29.775 
15:25	84.7	84.7	83.5	37	55.5	1	6	270	0.00	29.774 
15:30	84.7	84.7	83.2	35	54.0	3	6	270	0.00	29.772 
15:35	84.7	84.7	83.4	36	54.8	2	6	248	0.00	29.769 
15:40	84.9	84.9	83.9	38	56.4	2	5	270	0.00	29.761 
15:45	84.9	84.9	83.6	36	54.9	2	5	248	0.00	29.759 
15:50	84.5	84.5	83.3	37	55.3	2	8	248	0.00	29.750 
15:55	84.3	84.3	83.3	38	55.9	2	7	270	0.00	29.747 
16:00	84.5	84.5	83.6	39	56.8	1	6	225	0.00	29.744 
16:05	84.3	84.3	82.9	35	53.6	2	5	248	0.00	29.742 
16:10	83.8	83.8	82.4	35	53.2	2	6	270	0.00	29.740 
16:15	83.6	83.6	82.4	36	53.8	2	6	248	0.00	29.737 
16:20	83.4	83.4	82.4	38	55.1	1	4	248	0.00	29.734 
16:25	83.0	83.0	82.0	37	54.0	2	5	248	0.00	29.739 
16:30	82.6	82.6	81.8	39	55.1	2	4	270	0.00	29.732 
16:35	82.6	82.6	81.8	39	55.1	2	7	248	0.00	29.732 
16:40	82.6	82.6	81.5	36	52.9	3	7	270	0.00	29.741 
16:45	82.4	82.4	81.7	39	54.9	1	4	248	0.00	29.745 
16:50	82.2	82.2	81.6	40	55.4	1	3	225	0.00	29.746 
16:55	82.0	82.0	81.6	41	55.9	1	4	202	0.00	29.750 
17:00	82.0	82.0	81.5	40	55.3	2	6	270	0.00	29.748 
17:05	81.8	81.8	81.4	41	55.8	1	6	270	0.00	29.746 
17:10	81.4	81.4	81.2	42	56.1	1	3	248	0.00	29.743 
17:15	81.2	81.2	81.1	43	56.5	1	4	248	0.00	29.741 
17:20	81.1	81.1	81.0	43	56.5	1	3	248	0.00	29.733 
17:25	81.1	81.1	81.0	43	56.5	1	2	248	0.00	29.731 
17:30	80.9	80.9	81.1	45	57.5	1	3	248	0.00	29.728 
17:35	80.7	80.7	80.9	45	57.4	0	2	248	0.00	29.730 
17:40	80.5	80.5	80.7	45	57.2	0	2	248	0.00	29.731 
17:45	80.5	80.5	80.8	46	57.8	1	3	248	0.00	29.733 
17:50	80.5	80.5	80.8	46	57.8	1	2	248	0.00	29.737 
17:55	80.5	80.5	80.8	46	57.8	1	3	248	0.00	29.746 
18:00	80.3	80.3	80.7	46	57.6	0	2	248	0.00	29.747 
18:05	80.3	80.3	80.8	47	58.2	0	1	248	0.00	29.744 
18:10	79.9	79.9	80.5	48	58.4	0	1	248	0.00	29.746 
18:15	79.8	79.8	80.5	49	58.9	0	0	---	0.00	29.752 
18:20	79.6	79.6	80.5	51	59.9	0	1	248	0.00	29.757 
18:25	79.0	79.0	80.3	55	61.4	1	6	248	0.00	29.772 
18:30	75.1	75.1	77.1	65	62.5	4	9	315	0.01	29.795 
18:35	71.5	71.5	71.5	74	62.8	3	6	270	0.01	29.806 
18:40	69.1	69.1	69.1	80	62.7	4	7	270	0.00	29.821 
18:45	67.9	67.9	67.9	83	62.5	4	11	270	0.01	29.831 
18:50	67.3	67.3	67.3	85	62.6	3	6	270	0.01	29.839 
18:55	66.6	66.6	66.6	86	62.3	3	5	270	0.01	29.847 
19:00	66.3	66.3	66.3	88	62.6	1	4	248	0.01	29.846 
19:05	66.0	66.0	66.0	88	62.3	0	2	248	0.02	29.839 
19:10	65.5	65.5	65.5	89	62.2	0	2	248	0.01	29.826 
19:15	65.3	65.3	65.3	90	62.3	0	0	---	0.02	29.820 
19:20	65.3	65.3	65.3	90	62.3	0	3	338	0.02	29.813 
19:25	65.0	65.0	65.0	90	62.0	1	4	338	0.01	29.801 
19:30	64.7	64.7	64.7	91	62.0	0	2	225	0.02	29.810 
19:35	64.5	64.5	64.5	91	61.8	0	2	225	0.00	29.827 
19:40	64.5	64.5	64.5	92	62.1	0	1	225	0.01	29.826 
19:45	64.5	64.5	64.5	92	62.1	0	1	225	0.01	29.809 
19:50	64.7	64.7	64.7	92	62.3	0	0	---	0.01	29.811 
19:55	64.5	64.5	64.5	92	62.1	0	0	---	0.01	29.821 
20:00	64.5	64.5	64.5	93	62.4	0	1	225	0.00	29.795 
20:05	64.5	64.5	64.5	93	62.4	0	1	225	0.00	29.787 
20:10	64.5	64.5	64.5	93	62.4	0	1	225	0.00	29.793 
20:15	64.3	64.3	64.3	93	62.2	0	1	225	0.00	29.794 
20:20	64.3	64.3	64.3	94	62.5	0	0	---	0.00	29.794 
20:25	64.3	64.3	64.3	94	62.5	0	1	225	0.00	29.794 
20:30	64.3	64.3	64.3	94	62.5	0	1	225	0.00	29.791 
20:35	64.2	64.2	64.2	94	62.4	0	0	---	0.00	29.788 
20:40	64.0	64.0	64.0	94	62.2	0	0	---	0.00	29.782 
20:45	63.9	63.9	63.9	94	62.1	0	1	225	0.00	29.783 
20:50	63.9	63.9	63.9	94	62.1	0	0	---	0.00	29.779 
20:55	63.7	63.7	63.7	94	61.9	0	0	---	0.00	29.778 
21:00	63.5	63.5	63.5	94	61.7	0	0	---	0.00	29.776 
21:05	63.5	63.5	63.5	95	62.0	0	0	---	0.00	29.777 
21:10	63.4	63.4	63.4	94	61.6	0	2	225	0.00	29.785 
21:15	63.1	63.1	63.1	94	61.3	0	2	225	0.00	29.791 
21:20	62.9	62.9	62.9	94	61.1	0	2	225	0.00	29.793 
21:25	62.7	62.7	62.7	94	60.9	0	3	225	0.00	29.794 
21:30	62.6	62.6	62.6	94	60.8	0	2	225	0.00	29.803 
21:35	62.6	62.6	62.6	94	60.8	0	1	225	0.00	29.809 
21:40	62.6	62.6	62.6	94	60.8	0	1	225	0.00	29.806 
21:45	62.4	62.4	62.4	94	60.6	0	1	270	0.00	29.801 
21:50	62.4	62.4	62.4	94	60.6	1	4	248	0.00	29.802 
21:55	62.3	62.3	62.3	94	60.5	0	1	225	0.00	29.807 
22:00	62.3	62.3	62.3	94	60.5	0	1	225	0.00	29.800 
22:05	62.3	62.3	62.3	95	60.8	0	1	225	0.00	29.813 
22:10	62.3	62.3	62.3	95	60.8	0	1	225	0.00	29.811 
22:15	62.1	62.1	62.1	95	60.6	0	2	225	0.00	29.803 
22:20	62.1	62.1	62.1	95	60.6	0	1	225	0.00	29.799 
22:25	62.0	62.0	62.0	95	60.5	0	1	225	0.00	29.798 
22:30	62.0	62.0	62.0	95	60.5	0	1	225	0.00	29.797 
22:35	62.0	62.0	62.0	95	60.5	0	1	225	0.00	29.790 
22:40	62.0	62.0	62.0	95	60.5	0	2	225	0.00	29.790 
22:45	62.0	62.0	62.0	95	60.5	0	2	225	0.00	29.785 
22:50	62.0	62.0	62.0	95	60.5	0	1	225	0.00	29.784 
22:55	62.0	62.0	62.0	95	60.5	0	2	225	0.00	29.785 
23:00	62.0	62.0	62.0	95	60.5	0	3	225	0.00	29.783 
23:05	62.0	62.0	62.0	95	60.5	0	1	225	0.00	29.784 
23:10	62.0	62.0	62.0	95	60.5	0	2	270	0.00	29.785 
23:15	62.0	62.0	62.0	95	60.5	0	1	270	0.00	29.784 
23:20	62.0	62.0	62.0	96	60.8	0	2	270	0.00	29.783 
23:25	62.0	62.0	62.0	96	60.8	0	1	270	0.00	29.783 
23:30	62.0	62.0	62.0	96	60.8	0	1	270	0.00	29.784 
23:35	62.0	62.0	62.0	96	60.8	0	1	270	0.00	29.783 
23:40	62.0	62.0	62.0	96	60.8	0	1	270	0.00	29.783 
23:45	62.0	62.0	62.0	96	60.8	0	1	270	0.00	29.784 
23:50	62.0	62.0	62.0	96	60.8	0	1	270	0.00	29.784 
23:55	62.0	62.0	62.0	96	60.8	0	2	248	0.00	29.784 

CoCoRaHS
IN-AL-39
A2 Web Hosting
Creative Commons License
GoDaddy
Look for:

loaded 2017-10-18 07:29:55 • last modified 2010-11-18 10:43:29
Privacy PolicyDisclaimer
• wx.awcolley.com is powered by PmWiki v.2002016 •
• all content (unless otherwise noted) © 2017 A W Colley